createdAt,value
2022-10-10T00:00:21.531Z,10.43
2022-10-10T00:02:49.075Z,9.07
2022-10-10T00:05:16.939Z,8.65
2022-10-10T00:07:45.532Z,9.02
2022-10-10T00:10:13.033Z,9.98
2022-10-10T00:12:40.472Z,8.57
2022-10-10T00:15:08.343Z,9.70
2022-10-10T00:17:36.549Z,8.95
2022-10-10T00:20:04.259Z,8.73
2022-10-10T00:22:31.685Z,8.88
2022-10-10T00:24:59.286Z,8.40
2022-10-10T00:27:26.736Z,9.23
2022-10-10T00:29:54.357Z,9.27
2022-10-10T00:32:21.888Z,8.70
2022-10-10T00:34:49.274Z,8.45
2022-10-10T00:37:16.810Z,8.40
2022-10-10T00:39:44.230Z,8.57
2022-10-10T00:42:15.751Z,8.63
2022-10-10T00:44:44.109Z,8.52
2022-10-10T00:47:11.547Z,8.00
2022-10-10T00:49:42.631Z,9.10
2022-10-10T00:52:10.984Z,8.25
2022-10-10T00:54:39.657Z,8.65
2022-10-10T00:57:12.415Z,8.57
2022-10-10T00:59:41.559Z,8.88
2022-10-10T01:02:09.141Z,8.38
2022-10-10T01:04:41.762Z,8.57
2022-10-10T01:07:20.262Z,8.50
2022-10-10T01:12:26.893Z,8.05
2022-10-10T01:15:29.880Z,8.52
2022-10-10T01:18:04.424Z,8.57
2022-10-10T01:20:40.874Z,8.85
2022-10-10T01:23:14.424Z,8.77
2022-10-10T01:25:53.312Z,8.60
2022-10-10T01:28:26.703Z,8.18
2022-10-10T01:30:55.046Z,7.85
2022-10-10T01:33:54.501Z,8.50
2022-10-10T01:36:27.833Z,8.23
2022-10-10T01:39:14.375Z,8.80
2022-10-10T01:41:48.557Z,7.60
2022-10-10T01:44:20.467Z,8.13
2022-10-10T01:46:48.468Z,8.02
2022-10-10T01:49:15.971Z,7.55
2022-10-10T01:51:43.377Z,7.13
2022-10-10T01:54:13.927Z,7.68
2022-10-10T01:57:00.816Z,7.30
2022-10-10T01:59:46.799Z,7.80
2022-10-10T02:02:37.515Z,7.95
2022-10-10T02:05:09.048Z,7.00
2022-10-10T02:07:40.448Z,7.28
2022-10-10T02:10:09.057Z,7.30
2022-10-10T02:12:37.171Z,7.53
2022-10-10T02:15:13.123Z,7.88
2022-10-10T02:17:41.376Z,7.25
2022-10-10T02:20:12.355Z,7.50
2022-10-10T02:22:41.208Z,6.95
2022-10-10T02:25:09.077Z,7.10
2022-10-10T02:27:39.993Z,7.63
2022-10-10T02:30:07.847Z,8.02
2022-10-10T02:32:40.879Z,7.55
2022-10-10T02:35:09.967Z,8.02
2022-10-10T02:37:40.078Z,7.65
2022-10-10T02:40:08.727Z,7.35
2022-10-10T02:42:37.045Z,7.80
2022-10-10T02:45:05.249Z,7.30
2022-10-10T02:47:32.856Z,7.43
2022-10-10T02:50:00.242Z,6.65
2022-10-10T02:52:27.726Z,7.18
2022-10-10T02:54:55.352Z,6.60
2022-10-10T02:57:22.846Z,6.97
2022-10-10T02:59:50.260Z,7.07
2022-10-10T03:02:17.726Z,7.20
2022-10-10T03:04:45.119Z,7.50
2022-10-10T03:07:12.701Z,7.07
2022-10-10T03:09:40.280Z,7.30
2022-10-10T03:12:07.721Z,7.53
2022-10-10T03:14:35.184Z,7.75
2022-10-10T03:17:02.624Z,6.95
2022-10-10T03:19:30.004Z,7.35
2022-10-10T03:21:57.445Z,7.63
2022-10-10T03:24:25.001Z,7.05
2022-10-10T03:26:52.468Z,7.20
2022-10-10T03:29:19.919Z,6.97
2022-10-10T03:31:47.376Z,7.35
2022-10-10T03:34:14.838Z,7.70
2022-10-10T03:36:42.242Z,7.28
2022-10-10T03:39:09.648Z,7.82
2022-10-10T03:41:37.268Z,8.27
2022-10-10T03:44:04.646Z,7.30
2022-10-10T03:46:32.053Z,11.40
2022-10-10T03:48:59.415Z,9.68
2022-10-10T03:51:26.871Z,8.63
2022-10-10T03:53:55.222Z,7.78
2022-10-10T03:56:22.760Z,7.90
2022-10-10T03:58:50.320Z,8.38
2022-10-10T04:01:17.830Z,8.00
2022-10-10T04:03:49.897Z,7.50
2022-10-10T04:06:19.533Z,8.37
2022-10-10T04:08:46.901Z,7.30
2022-10-10T04:11:14.770Z,10.07
2022-10-10T04:13:42.162Z,9.00
2022-10-10T04:16:09.613Z,7.70
2022-10-10T04:18:37.124Z,7.78
2022-10-10T04:21:05.401Z,7.43
2022-10-10T04:23:33.343Z,7.15
2022-10-10T04:26:00.813Z,7.35
2022-10-10T04:28:28.274Z,7.10
2022-10-10T04:30:56.714Z,8.82
2022-10-10T04:33:24.264Z,10.95
2022-10-10T04:35:51.722Z,12.30
2022-10-10T04:38:21.373Z,7.40
2022-10-10T04:40:50.163Z,8.38
2022-10-10T04:43:18.098Z,7.38
2022-10-10T04:45:45.756Z,8.30
2022-10-10T04:48:13.184Z,7.10
2022-10-10T04:50:40.733Z,7.68
2022-10-10T04:53:08.245Z,11.75
2022-10-10T04:55:35.810Z,13.45
2022-10-10T04:58:03.233Z,9.77
2022-10-10T05:00:30.748Z,9.52
2022-10-10T05:02:58.134Z,7.00
2022-10-10T05:05:25.572Z,6.80
2022-10-10T05:07:55.670Z,7.32
2022-10-10T05:10:23.665Z,7.30
2022-10-10T05:12:51.456Z,7.15
2022-10-10T05:15:19.265Z,8.75
2022-10-10T05:17:46.632Z,15.00
2022-10-10T05:20:14.124Z,18.48
2022-10-10T05:22:41.551Z,18.88
2022-10-10T05:25:09.157Z,17.27
2022-10-10T05:27:36.554Z,14.23
2022-10-10T05:30:04.012Z,9.50
2022-10-10T05:32:31.497Z,6.20
2022-10-10T05:34:58.899Z,5.65
2022-10-10T05:37:26.409Z,6.65
2022-10-10T05:39:54.859Z,6.00
2022-10-10T05:42:22.423Z,5.65
2022-10-10T05:44:49.899Z,6.00
2022-10-10T05:47:17.437Z,5.80
2022-10-10T05:49:44.806Z,5.55
2022-10-10T05:52:12.252Z,5.15
2022-10-10T05:54:39.815Z,4.85
2022-10-10T05:57:07.254Z,4.55
2022-10-10T05:59:34.711Z,4.57
2022-10-10T06:02:02.135Z,4.90
2022-10-10T06:04:29.614Z,4.75
2022-10-10T06:06:57.020Z,5.70
2022-10-10T06:09:24.512Z,4.15
2022-10-10T06:11:51.900Z,4.80
2022-10-10T06:14:19.464Z,4.00
2022-10-10T06:16:46.835Z,4.45
2022-10-10T06:19:15.241Z,4.00
2022-10-10T06:21:42.851Z,3.83
2022-10-10T06:24:10.891Z,3.58
2022-10-10T06:26:39.608Z,3.38
2022-10-10T06:29:07.463Z,3.50
2022-10-10T06:31:39.494Z,3.15
2022-10-10T06:34:07.104Z,3.40
2022-10-10T06:36:34.544Z,3.25
2022-10-10T06:39:02.093Z,3.10
2022-10-10T06:41:29.612Z,3.40
2022-10-10T06:43:57.076Z,3.20
2022-10-10T06:46:24.511Z,3.40
2022-10-10T06:48:51.997Z,3.88
2022-10-10T06:51:19.816Z,3.60
2022-10-10T06:53:47.298Z,2.92
2022-10-10T06:56:27.350Z,2.45
2022-10-10T06:58:55.464Z,2.88
2022-10-10T07:01:24.580Z,2.67
2022-10-10T07:03:52.195Z,3.28
2022-10-10T07:06:19.865Z,3.05
2022-10-10T07:08:47.420Z,2.90
2022-10-10T07:11:14.996Z,3.75
2022-10-10T07:13:42.542Z,3.28
2022-10-10T07:16:11.325Z,2.40
2022-10-10T07:18:38.897Z,2.72
2022-10-10T07:21:06.704Z,3.10
2022-10-10T07:23:36.516Z,2.45
2022-10-10T07:26:05.889Z,2.45
2022-10-10T07:28:33.979Z,2.20
2022-10-10T07:31:02.657Z,2.50
2022-10-10T07:33:34.053Z,2.58
2022-10-10T07:36:01.555Z,3.03
2022-10-10T07:38:29.141Z,2.80
2022-10-10T07:40:56.576Z,1.98
2022-10-10T07:43:24.083Z,2.58
2022-10-10T07:45:51.626Z,3.03
2022-10-10T07:48:19.035Z,1.90
2022-10-10T07:50:46.568Z,1.80
2022-10-10T07:53:14.291Z,1.70
2022-10-10T07:55:42.582Z,2.30
2022-10-10T07:58:11.027Z,2.80
2022-10-10T08:00:41.933Z,2.30
2022-10-10T08:03:12.137Z,2.20
2022-10-10T08:05:41.086Z,2.88
2022-10-10T08:08:08.589Z,2.13
2022-10-10T08:10:40.564Z,1.73
2022-10-10T08:13:08.149Z,2.13
2022-10-10T08:15:35.552Z,2.45
2022-10-10T08:18:03.055Z,1.80
2022-10-10T08:20:30.495Z,2.13
2022-10-10T08:22:58.007Z,2.20
2022-10-10T08:25:26.360Z,2.28
2022-10-10T08:27:53.772Z,2.90
2022-10-10T08:30:21.178Z,2.90
2022-10-10T08:32:48.865Z,3.70
2022-10-10T08:35:16.715Z,3.10
2022-10-10T08:37:44.157Z,4.43
2022-10-10T08:40:15.335Z,5.32
2022-10-10T08:42:50.444Z,3.58
2022-10-10T08:45:25.617Z,4.10
2022-10-10T08:47:59.144Z,3.80
2022-10-10T08:50:30.324Z,3.70
2022-10-10T08:53:15.662Z,2.92
2022-10-10T08:55:44.018Z,3.45
2022-10-10T08:58:20.540Z,3.30
2022-10-10T09:01:08.037Z,2.55
2022-10-10T09:03:47.934Z,2.90
2022-10-10T09:06:18.375Z,2.40
2022-10-10T09:08:48.979Z,3.40
2022-10-10T09:11:35.090Z,2.38
2022-10-10T09:14:17.849Z,3.50
2022-10-10T09:16:51.594Z,2.85
2022-10-10T09:19:27.545Z,2.88
2022-10-10T09:21:57.774Z,3.15
2022-10-10T09:24:27.677Z,3.20
2022-10-10T09:27:01.954Z,2.50
2022-10-10T09:29:35.520Z,2.25
2022-10-10T09:32:12.045Z,2.33
2022-10-10T09:34:49.804Z,2.70
2022-10-10T09:37:42.257Z,2.60
2022-10-10T09:40:22.853Z,2.30
2022-10-10T09:42:50.729Z,2.78
2022-10-10T09:45:25.661Z,2.55
2022-10-10T09:47:55.071Z,2.10
2022-10-10T09:50:22.948Z,2.10
2022-10-10T09:52:50.777Z,2.30
2022-10-10T09:55:31.729Z,2.15
2022-10-10T09:58:04.438Z,2.30
2022-10-10T10:00:36.678Z,2.90
2022-10-10T10:03:16.124Z,2.60
2022-10-10T10:05:46.213Z,2.60
2022-10-10T10:08:24.861Z,2.85
2022-10-10T10:10:52.401Z,2.38
2022-10-10T10:13:25.552Z,2.25
2022-10-10T10:15:57.920Z,2.30
2022-10-10T10:18:28.534Z,2.47
2022-10-10T10:21:10.170Z,3.28
2022-10-10T10:23:58.136Z,2.38
2022-10-10T10:26:45.843Z,2.50
2022-10-10T10:29:28.206Z,3.28
2022-10-10T10:32:15.293Z,2.05
2022-10-10T10:34:54.956Z,3.80
2022-10-10T10:37:33.204Z,2.90
2022-10-10T10:40:12.840Z,2.50
2022-10-10T10:42:43.351Z,2.17
2022-10-10T10:45:18.519Z,2.00
2022-10-10T10:47:46.046Z,2.25
2022-10-10T10:50:25.575Z,2.00
2022-10-10T10:52:56.217Z,2.03
2022-10-10T10:55:33.277Z,2.28
2022-10-10T10:58:43.363Z,2.38
2022-10-10T11:01:22.255Z,2.28
2022-10-10T11:05:16.474Z,2.85
2022-10-10T11:06:49.117Z,2.60
2022-10-10T11:09:49.119Z,2.10
2022-10-10T11:12:22.783Z,2.65
2022-10-10T11:15:08.929Z,2.72
2022-10-10T11:17:37.859Z,2.60
2022-10-10T11:20:23.629Z,2.08
2022-10-10T11:22:54.533Z,2.28
2022-10-10T11:25:24.726Z,2.00
2022-10-10T11:27:56.127Z,3.03
2022-10-10T11:30:28.448Z,2.30
2022-10-10T11:33:10.903Z,2.33
2022-10-10T11:35:45.209Z,2.53
2022-10-10T11:38:12.624Z,2.53
2022-10-10T11:40:52.349Z,3.03
2022-10-10T11:43:23.548Z,2.65
2022-10-10T11:45:56.774Z,2.38
2022-10-10T11:48:47.160Z,2.33
2022-10-10T11:51:25.849Z,2.75
2022-10-10T11:53:57.797Z,2.50
2022-10-10T11:56:36.972Z,2.85
2022-10-10T11:59:21.967Z,3.05
2022-10-10T12:01:50.688Z,2.72
2022-10-10T12:04:18.278Z,3.15
2022-10-10T12:06:45.727Z,3.10
2022-10-10T12:09:19.264Z,3.00
2022-10-10T12:11:53.152Z,4.50
2022-10-10T12:14:22.278Z,4.37
2022-10-10T12:16:49.877Z,3.13
2022-10-10T12:19:19.388Z,2.35
2022-10-10T12:21:52.729Z,6.32
2022-10-10T12:24:20.331Z,4.50
2022-10-10T12:26:53.761Z,2.92
2022-10-10T12:29:36.324Z,2.92
2022-10-10T12:32:17.411Z,2.80
2022-10-10T12:34:58.601Z,3.58
2022-10-10T12:37:30.173Z,2.65
2022-10-10T12:40:19.746Z,2.80
2022-10-10T12:42:47.177Z,2.70
2022-10-10T12:45:30.013Z,3.10
2022-10-10T12:48:18.782Z,3.03
2022-10-10T12:50:55.523Z,2.42
2022-10-10T12:53:24.548Z,2.70
2022-10-10T12:55:54.345Z,2.83
2022-10-10T12:58:28.131Z,2.60
2022-10-10T13:01:07.094Z,3.25
2022-10-10T13:03:45.451Z,2.65
2022-10-10T13:06:32.864Z,3.88
2022-10-10T13:09:01.422Z,2.75
2022-10-10T13:11:28.842Z,2.97
2022-10-10T13:13:57.587Z,2.95
2022-10-10T13:16:31.138Z,3.13
2022-10-10T13:19:01.473Z,3.63
2022-10-10T13:21:34.003Z,4.00
2022-10-10T13:24:05.834Z,4.07
2022-10-10T13:26:34.203Z,3.80
2022-10-10T13:29:07.007Z,3.35
2022-10-10T13:31:34.462Z,3.28
2022-10-10T13:34:07.488Z,6.43
2022-10-10T13:36:35.294Z,3.55
2022-10-10T13:39:02.958Z,3.65
2022-10-10T13:41:30.513Z,5.80
2022-10-10T13:43:57.982Z,7.07
2022-10-10T13:46:30.890Z,4.88
2022-10-10T13:48:58.494Z,3.50
2022-10-10T13:51:42.624Z,3.00
2022-10-10T13:54:29.071Z,3.50
2022-10-10T13:56:56.568Z,5.75
2022-10-10T13:59:24.644Z,2.70
2022-10-10T14:01:55.711Z,3.00
2022-10-10T14:04:28.039Z,3.20
2022-10-10T14:06:58.507Z,2.88
2022-10-10T14:09:25.894Z,4.15
2022-10-10T14:11:54.775Z,3.85
2022-10-10T14:14:24.447Z,3.70
2022-10-10T14:17:01.892Z,4.15
2022-10-10T14:19:32.110Z,3.55
2022-10-10T14:21:59.846Z,3.50
2022-10-10T14:24:27.347Z,3.10
2022-10-10T14:26:54.919Z,3.75
2022-10-10T14:29:22.371Z,3.03
2022-10-10T14:31:49.859Z,2.85
2022-10-10T14:34:17.263Z,3.40
2022-10-10T14:36:48.521Z,2.80
2022-10-10T14:39:16.674Z,3.03
2022-10-10T14:41:44.091Z,4.20
2022-10-10T14:44:11.788Z,2.97
2022-10-10T14:46:40.007Z,2.70
2022-10-10T14:49:12.956Z,3.40
2022-10-10T14:51:40.605Z,3.50
2022-10-10T14:54:13.539Z,3.65
2022-10-10T14:57:07.314Z,3.05
2022-10-10T14:59:49.449Z,3.10
2022-10-10T15:02:18.683Z,3.65
2022-10-10T15:04:48.378Z,3.50
2022-10-10T15:07:16.328Z,3.80
2022-10-10T15:10:18.912Z,3.30
2022-10-10T15:12:32.671Z,3.28
2022-10-10T15:15:00.086Z,3.33
2022-10-10T15:17:29.688Z,3.40
2022-10-10T15:19:57.341Z,3.78
2022-10-10T15:22:24.795Z,4.40
2022-10-10T15:24:52.221Z,3.70
2022-10-10T15:27:19.924Z,4.05
2022-10-10T15:29:47.382Z,3.85
2022-10-10T15:32:14.844Z,3.60
2022-10-10T15:34:42.261Z,3.28
2022-10-10T15:37:10.558Z,3.35
2022-10-10T15:39:38.254Z,4.18
2022-10-10T15:42:12.604Z,3.70
2022-10-10T15:44:45.858Z,3.70
2022-10-10T15:47:14.312Z,3.80
2022-10-10T15:49:42.248Z,3.88
2022-10-10T15:52:10.319Z,3.90
2022-10-10T15:54:37.758Z,6.05
2022-10-10T15:57:05.245Z,7.95
2022-10-10T15:59:33.120Z,8.55
2022-10-10T16:02:03.480Z,5.20
2022-10-10T16:04:30.926Z,5.55
2022-10-10T16:09:48.463Z,9.52
2022-10-10T16:12:18.390Z,9.40
2022-10-10T16:14:45.928Z,5.50
2022-10-10T16:17:13.357Z,4.15
2022-10-10T16:19:40.875Z,4.15
2022-10-10T16:22:08.232Z,4.18
2022-10-10T16:24:35.726Z,4.00
2022-10-10T16:27:03.131Z,3.60
2022-10-10T16:29:30.559Z,3.20
2022-10-10T16:31:57.980Z,3.60
2022-10-10T16:34:25.460Z,4.70
2022-10-10T16:36:53.029Z,4.70
2022-10-10T16:39:20.479Z,3.70
2022-10-10T16:41:49.167Z,3.13
2022-10-10T16:44:17.582Z,3.88
2022-10-10T16:46:45.187Z,3.70
2022-10-10T16:49:13.395Z,3.20
2022-10-10T16:51:40.836Z,3.30
2022-10-10T16:54:08.795Z,3.33
2022-10-10T16:56:36.295Z,3.22
2022-10-10T16:59:04.342Z,2.85
2022-10-10T17:01:32.656Z,3.22
2022-10-10T17:04:00.610Z,3.20
2022-10-10T17:06:34.116Z,3.92
2022-10-10T17:09:02.907Z,3.65
2022-10-10T17:11:30.472Z,3.80
2022-10-10T17:13:58.550Z,3.80
2022-10-10T17:17:06.975Z,3.10
2022-10-10T17:19:14.657Z,3.65
2022-10-10T17:21:42.193Z,3.60
2022-10-10T17:24:10.239Z,3.42
2022-10-10T17:26:37.971Z,3.30
2022-10-10T17:29:05.497Z,3.65
2022-10-10T17:31:33.666Z,3.10
2022-10-10T17:34:01.147Z,3.33
2022-10-10T17:36:29.418Z,3.47
2022-10-10T17:38:56.965Z,3.15
2022-10-10T17:41:24.403Z,2.92
2022-10-10T17:43:51.847Z,3.17
2022-10-10T17:46:37.077Z,2.90
2022-10-10T17:49:05.761Z,3.75
2022-10-10T17:51:33.548Z,3.03
2022-10-10T17:54:01.101Z,3.72
2022-10-10T17:56:28.607Z,3.90
2022-10-10T17:58:56.064Z,4.65
2022-10-10T18:01:23.647Z,3.60
2022-10-10T18:03:51.392Z,3.58
2022-10-10T18:06:20.768Z,3.97
2022-10-10T18:08:48.959Z,3.55
2022-10-10T18:11:17.314Z,3.60
2022-10-10T18:13:45.215Z,3.40
2022-10-10T18:16:14.150Z,3.45
2022-10-10T18:18:45.660Z,3.38
2022-10-10T18:21:16.308Z,4.13
2022-10-10T18:23:44.037Z,3.47
2022-10-10T18:26:19.254Z,3.83
2022-10-10T18:28:46.778Z,3.25
2022-10-10T18:31:15.864Z,3.92
2022-10-10T18:33:44.912Z,3.38
2022-10-10T18:36:13.060Z,3.33
2022-10-10T18:38:40.552Z,3.22
2022-10-10T18:41:08.993Z,3.83
2022-10-10T18:43:36.669Z,3.42
2022-10-10T18:46:05.824Z,4.05
2022-10-10T18:48:33.620Z,3.60
2022-10-10T18:51:05.712Z,3.20
2022-10-10T18:53:40.533Z,3.30
2022-10-10T18:56:08.792Z,3.50
2022-10-10T18:58:36.934Z,4.15
2022-10-10T19:01:06.669Z,4.13
2022-10-10T19:03:34.412Z,3.65
2022-10-10T19:06:02.878Z,3.92
2022-10-10T19:08:33.531Z,3.58
2022-10-10T19:11:01.281Z,3.88
2022-10-10T19:13:29.282Z,4.32
2022-10-10T19:15:57.153Z,4.32
2022-10-10T19:18:24.582Z,3.90
2022-10-10T19:20:52.024Z,4.22
2022-10-10T19:23:19.779Z,4.25
2022-10-10T19:25:47.338Z,4.75
2022-10-10T19:28:14.801Z,4.88
2022-10-10T19:30:43.620Z,4.85
2022-10-10T19:33:11.632Z,4.85
2022-10-10T19:35:40.050Z,4.50
2022-10-10T19:38:08.209Z,4.80
2022-10-10T19:40:36.142Z,5.85
2022-10-10T19:43:03.671Z,4.93
2022-10-10T19:45:31.056Z,5.20
2022-10-10T19:47:58.601Z,5.10
2022-10-10T19:50:25.964Z,4.90
2022-10-10T19:52:53.422Z,4.47
2022-10-10T19:55:20.859Z,4.80
2022-10-10T19:57:48.363Z,4.93
2022-10-10T20:00:15.933Z,5.25
2022-10-10T20:02:45.019Z,5.25
2022-10-10T20:05:12.709Z,5.05
2022-10-10T20:07:40.136Z,4.63
2022-10-10T20:10:07.791Z,4.32
2022-10-10T20:12:35.209Z,4.35
2022-10-10T20:15:02.685Z,4.10
2022-10-10T20:17:30.192Z,4.70
2022-10-10T20:19:57.619Z,4.90
2022-10-10T20:22:25.079Z,4.25
2022-10-10T20:24:53.231Z,4.55
2022-10-10T20:27:31.517Z,4.15
2022-10-10T20:30:00.084Z,3.72
2022-10-10T20:32:27.531Z,4.38
2022-10-10T20:34:55.008Z,4.72
2022-10-10T20:37:22.446Z,4.63
2022-10-10T20:39:49.937Z,4.40
2022-10-10T20:42:17.487Z,4.63
2022-10-10T20:44:44.977Z,4.40
2022-10-10T20:47:12.393Z,4.40
2022-10-10T20:49:39.858Z,4.30
2022-10-10T20:52:07.340Z,3.63
2022-10-10T20:54:36.267Z,3.83
2022-10-10T20:57:03.786Z,4.57
2022-10-10T20:59:31.236Z,4.30
2022-10-10T21:01:58.742Z,4.00
2022-10-10T21:04:26.276Z,4.45
2022-10-10T21:06:53.773Z,4.07
2022-10-10T21:09:21.313Z,4.22
2022-10-10T21:11:51.008Z,4.05
2022-10-10T21:14:19.226Z,3.90
2022-10-10T21:16:46.708Z,3.50
2022-10-10T21:19:14.968Z,3.88
2022-10-10T21:21:42.388Z,4.80
2022-10-10T21:24:13.898Z,4.30
2022-10-10T21:26:42.212Z,3.75
2022-10-10T21:29:10.134Z,3.70
2022-10-10T21:31:39.076Z,3.58
2022-10-10T21:34:07.924Z,3.20
2022-10-10T21:36:35.501Z,3.42
2022-10-10T21:39:02.955Z,3.75
2022-10-10T21:41:30.460Z,3.50
2022-10-10T21:43:58.853Z,3.60
2022-10-10T21:46:36.594Z,3.33
2022-10-10T21:49:06.201Z,3.60
2022-10-10T21:51:35.767Z,3.50
2022-10-10T21:54:03.292Z,3.67
2022-10-10T21:56:30.732Z,3.28
2022-10-10T21:59:01.193Z,3.67
2022-10-10T22:01:32.869Z,3.83
2022-10-10T22:04:01.052Z,5.05
2022-10-10T22:06:28.572Z,4.30
2022-10-10T22:08:57.362Z,3.20
2022-10-10T22:11:25.778Z,4.03
2022-10-10T22:13:53.686Z,4.93
2022-10-10T22:16:21.473Z,3.70
2022-10-10T22:18:49.083Z,3.38
2022-10-10T22:21:17.552Z,3.78
2022-10-10T22:23:45.570Z,3.47
2022-10-10T22:26:14.320Z,3.45
2022-10-10T22:28:41.812Z,3.80
2022-10-10T22:31:10.696Z,3.70
2022-10-10T22:33:38.119Z,4.28
2022-10-10T22:36:06.778Z,4.25
2022-10-10T22:38:37.920Z,4.05
2022-10-10T22:41:05.467Z,3.42
2022-10-10T22:43:33.219Z,4.10
2022-10-10T22:46:00.886Z,3.50
2022-10-10T22:48:28.605Z,3.85
2022-10-10T22:51:00.436Z,3.90
2022-10-10T22:53:27.963Z,4.30
2022-10-10T22:55:55.420Z,3.15
2022-10-10T22:58:22.944Z,3.60
2022-10-10T23:00:51.385Z,3.80
2022-10-10T23:03:19.027Z,3.42
2022-10-10T23:05:46.544Z,3.53
2022-10-10T23:08:14.421Z,3.85
2022-10-10T23:10:41.979Z,3.92
2022-10-10T23:13:09.470Z,4.00
2022-10-10T23:15:36.871Z,3.80
2022-10-10T23:18:04.416Z,3.45
2022-10-10T23:20:31.917Z,3.92
2022-10-10T23:22:59.407Z,3.63
2022-10-10T23:25:26.805Z,3.45
2022-10-10T23:27:54.275Z,3.40
2022-10-10T23:30:21.687Z,3.80
2022-10-10T23:32:49.178Z,3.55
2022-10-10T23:35:16.640Z,3.92
2022-10-10T23:37:44.092Z,4.55
2022-10-10T23:40:11.784Z,3.70
2022-10-10T23:42:39.259Z,3.65
2022-10-10T23:45:06.953Z,3.83
2022-10-10T23:47:34.317Z,4.00
2022-10-10T23:50:01.740Z,3.63
2022-10-10T23:52:29.180Z,3.45
2022-10-10T23:54:56.659Z,3.65
2022-10-10T23:57:24.041Z,3.50
2022-10-10T23:59:51.516Z,3.58
